sensor_id;sensor_type;location;lat;lon;timestamp;P1;durP1;ratioP1;P2;durP2;ratioP2
7983;SDS011;4037;47.980;10.172;2022-12-13T00:01:38;19.37;;;10.20;;
7983;SDS011;4037;47.980;10.172;2022-12-13T00:04:05;13.53;;;9.63;;
7983;SDS011;4037;47.980;10.172;2022-12-13T00:06:32;15.70;;;10.33;;
7983;SDS011;4037;47.980;10.172;2022-12-13T00:08:58;18.53;;;10.40;;
7983;SDS011;4037;47.980;10.172;2022-12-13T00:11:24;18.93;;;10.67;;
7983;SDS011;4037;47.980;10.172;2022-12-13T00:13:51;16.13;;;10.13;;
7983;SDS011;4037;47.980;10.172;2022-12-13T00:16:18;15.10;;;11.00;;
7983;SDS011;4037;47.980;10.172;2022-12-13T00:18:46;16.73;;;9.77;;
7983;SDS011;4037;47.980;10.172;2022-12-13T00:21:14;15.20;;;10.10;;
7983;SDS011;4037;47.980;10.172;2022-12-13T00:23:40;18.37;;;10.17;;
7983;SDS011;4037;47.980;10.172;2022-12-13T00:26:11;16.13;;;10.20;;
7983;SDS011;4037;47.980;10.172;2022-12-13T00:28:37;14.37;;;9.47;;
7983;SDS011;4037;47.980;10.172;2022-12-13T00:31:04;19.37;;;9.87;;
7983;SDS011;4037;47.980;10.172;2022-12-13T00:33:30;14.63;;;8.50;;
7983;SDS011;4037;47.980;10.172;2022-12-13T00:35:56;15.47;;;9.67;;
7983;SDS011;4037;47.980;10.172;2022-12-13T00:38:22;16.77;;;9.03;;
7983;SDS011;4037;47.980;10.172;2022-12-13T00:40:48;18.93;;;9.87;;
7983;SDS011;4037;47.980;10.172;2022-12-13T00:43:15;15.57;;;9.10;;
7983;SDS011;4037;47.980;10.172;2022-12-13T00:45:41;13.30;;;9.03;;
7983;SDS011;4037;47.980;10.172;2022-12-13T00:48:07;14.47;;;8.67;;
7983;SDS011;4037;47.980;10.172;2022-12-13T00:50:33;12.53;;;7.60;;
7983;SDS011;4037;47.980;10.172;2022-12-13T00:53:00;12.50;;;8.03;;
7983;SDS011;4037;47.980;10.172;2022-12-13T00:55:26;15.20;;;9.13;;
7983;SDS011;4037;47.980;10.172;2022-12-13T00:57:52;13.40;;;7.97;;
7983;SDS011;4037;47.980;10.172;2022-12-13T01:00:18;11.30;;;8.03;;
7983;SDS011;4037;47.980;10.172;2022-12-13T01:02:44;10.93;;;7.63;;
7983;SDS011;4037;47.980;10.172;2022-12-13T01:05:11;11.07;;;7.57;;
7983;SDS011;4037;47.980;10.172;2022-12-13T01:07:37;15.07;;;9.13;;
7983;SDS011;4037;47.980;10.172;2022-12-13T01:10:04;12.73;;;8.40;;
7983;SDS011;4037;47.980;10.172;2022-12-13T01:12:31;13.37;;;8.33;;
7983;SDS011;4037;47.980;10.172;2022-12-13T01:14:57;11.07;;;7.73;;
7983;SDS011;4037;47.980;10.172;2022-12-13T01:17:23;15.03;;;7.70;;
7983;SDS011;4037;47.980;10.172;2022-12-13T01:19:49;12.93;;;7.90;;
7983;SDS011;4037;47.980;10.172;2022-12-13T01:22:16;11.57;;;8.00;;
7983;SDS011;4037;47.980;10.172;2022-12-13T01:24:42;12.17;;;8.23;;
7983;SDS011;4037;47.980;10.172;2022-12-13T01:27:08;13.23;;;7.47;;
7983;SDS011;4037;47.980;10.172;2022-12-13T01:29:34;11.47;;;8.27;;
7983;SDS011;4037;47.980;10.172;2022-12-13T01:32:00;14.67;;;8.50;;
7983;SDS011;4037;47.980;10.172;2022-12-13T01:34:26;13.00;;;7.27;;
7983;SDS011;4037;47.980;10.172;2022-12-13T01:36:53;11.80;;;7.60;;
7983;SDS011;4037;47.980;10.172;2022-12-13T01:39:19;11.67;;;7.13;;
7983;SDS011;4037;47.980;10.172;2022-12-13T01:41:47;11.17;;;7.70;;
7983;SDS011;4037;47.980;10.172;2022-12-13T01:46:58;13.07;;;7.90;;
7983;SDS011;4037;47.980;10.172;2022-12-13T01:49:24;15.60;;;7.63;;
7983;SDS011;4037;47.980;10.172;2022-12-13T01:51:51;12.77;;;7.60;;
7983;SDS011;4037;47.980;10.172;2022-12-13T01:54:20;12.30;;;8.53;;
7983;SDS011;4037;47.980;10.172;2022-12-13T01:56:49;11.57;;;7.70;;
7983;SDS011;4037;47.980;10.172;2022-12-13T01:59:16;12.83;;;8.40;;
7983;SDS011;4037;47.980;10.172;2022-12-13T02:01:43;13.10;;;8.03;;
7983;SDS011;4037;47.980;10.172;2022-12-13T02:04:10;9.77;;;7.30;;
7983;SDS011;4037;47.980;10.172;2022-12-13T02:06:40;10.67;;;7.83;;
7983;SDS011;4037;47.980;10.172;2022-12-13T02:09:08;12.53;;;7.10;;
7983;SDS011;4037;47.980;10.172;2022-12-13T02:11:34;12.77;;;7.17;;
7983;SDS011;4037;47.980;10.172;2022-12-13T02:14:01;10.53;;;7.60;;
7983;SDS011;4037;47.980;10.172;2022-12-13T02:30:21;11.60;;;7.87;;
7983;SDS011;4037;47.980;10.172;2022-12-13T02:32:56;11.63;;;7.97;;
7983;SDS011;4037;47.980;10.172;2022-12-13T02:38:14;12.20;;;8.70;;
7983;SDS011;4037;47.980;10.172;2022-12-13T02:40:47;10.97;;;7.63;;
7983;SDS011;4037;47.980;10.172;2022-12-13T02:45:48;11.47;;;7.23;;
7983;SDS011;4037;47.980;10.172;2022-12-13T02:48:20;13.23;;;9.27;;
7983;SDS011;4037;47.980;10.172;2022-12-13T02:50:48;13.00;;;8.00;;
7983;SDS011;4037;47.980;10.172;2022-12-13T02:53:15;11.23;;;7.57;;
7983;SDS011;4037;47.980;10.172;2022-12-13T02:55:42;12.13;;;7.60;;
7983;SDS011;4037;47.980;10.172;2022-12-13T02:58:11;11.93;;;8.63;;
7983;SDS011;4037;47.980;10.172;2022-12-13T03:06:15;13.27;;;8.13;;
7983;SDS011;4037;47.980;10.172;2022-12-13T03:11:42;14.20;;;7.63;;
7983;SDS011;4037;47.980;10.172;2022-12-13T03:14:29;17.03;;;8.73;;
7983;SDS011;4037;47.980;10.172;2022-12-13T03:16:58;21.03;;;11.53;;
7983;SDS011;4037;47.980;10.172;2022-12-13T03:19:26;27.80;;;13.30;;
7983;SDS011;4037;47.980;10.172;2022-12-13T03:21:52;26.87;;;14.40;;
7983;SDS011;4037;47.980;10.172;2022-12-13T03:24:19;25.47;;;13.03;;
7983;SDS011;4037;47.980;10.172;2022-12-13T03:26:46;23.47;;;12.97;;
7983;SDS011;4037;47.980;10.172;2022-12-13T03:29:13;23.50;;;12.20;;
7983;SDS011;4037;47.980;10.172;2022-12-13T03:31:39;24.47;;;12.03;;
7983;SDS011;4037;47.980;10.172;2022-12-13T03:34:05;21.17;;;11.97;;
7983;SDS011;4037;47.980;10.172;2022-12-13T03:36:31;23.03;;;11.80;;
7983;SDS011;4037;47.980;10.172;2022-12-13T03:38:57;18.60;;;10.63;;
7983;SDS011;4037;47.980;10.172;2022-12-13T03:41:24;14.30;;;9.47;;
7983;SDS011;4037;47.980;10.172;2022-12-13T03:43:59;14.17;;;9.50;;
7983;SDS011;4037;47.980;10.172;2022-12-13T03:46:27;12.13;;;8.30;;
7983;SDS011;4037;47.980;10.172;2022-12-13T03:48:53;12.83;;;7.70;;
7983;SDS011;4037;47.980;10.172;2022-12-13T03:51:19;11.83;;;8.57;;
7983;SDS011;4037;47.980;10.172;2022-12-13T03:53:45;10.37;;;7.30;;
7983;SDS011;4037;47.980;10.172;2022-12-13T03:56:11;12.47;;;7.87;;
7983;SDS011;4037;47.980;10.172;2022-12-13T03:58:37;9.57;;;6.93;;
7983;SDS011;4037;47.980;10.172;2022-12-13T04:01:07;10.63;;;6.83;;
7983;SDS011;4037;47.980;10.172;2022-12-13T04:03:34;13.03;;;8.27;;
7983;SDS011;4037;47.980;10.172;2022-12-13T04:06:00;10.47;;;7.33;;
7983;SDS011;4037;47.980;10.172;2022-12-13T04:08:26;9.53;;;7.53;;
7983;SDS011;4037;47.980;10.172;2022-12-13T04:10:52;11.47;;;7.10;;
7983;SDS011;4037;47.980;10.172;2022-12-13T04:13:18;12.60;;;7.53;;
7983;SDS011;4037;47.980;10.172;2022-12-13T04:15:56;11.40;;;7.20;;
7983;SDS011;4037;47.980;10.172;2022-12-13T04:18:22;10.57;;;7.83;;
7983;SDS011;4037;47.980;10.172;2022-12-13T04:20:48;13.67;;;7.63;;
7983;SDS011;4037;47.980;10.172;2022-12-13T04:23:14;14.20;;;8.23;;
7983;SDS011;4037;47.980;10.172;2022-12-13T04:25:41;12.50;;;8.37;;
7983;SDS011;4037;47.980;10.172;2022-12-13T04:28:07;10.77;;;7.80;;
7983;SDS011;4037;47.980;10.172;2022-12-13T04:30:34;8.93;;;7.03;;
7983;SDS011;4037;47.980;10.172;2022-12-13T04:33:00;12.23;;;7.87;;
7983;SDS011;4037;47.980;10.172;2022-12-13T04:35:26;10.83;;;7.53;;
7983;SDS011;4037;47.980;10.172;2022-12-13T04:37:53;13.47;;;7.57;;
7983;SDS011;4037;47.980;10.172;2022-12-13T04:40:20;11.07;;;7.77;;
7983;SDS011;4037;47.980;10.172;2022-12-13T04:42:46;13.27;;;8.60;;
7983;SDS011;4037;47.980;10.172;2022-12-13T04:45:14;9.60;;;6.97;;
7983;SDS011;4037;47.980;10.172;2022-12-13T04:47:40;13.27;;;8.03;;
7983;SDS011;4037;47.980;10.172;2022-12-13T04:50:06;12.43;;;8.37;;
7983;SDS011;4037;47.980;10.172;2022-12-13T04:52:32;12.37;;;8.07;;
7983;SDS011;4037;47.980;10.172;2022-12-13T04:54:59;10.97;;;7.73;;
7983;SDS011;4037;47.980;10.172;2022-12-13T04:57:25;11.47;;;7.57;;
7983;SDS011;4037;47.980;10.172;2022-12-13T04:59:51;13.87;;;7.43;;
7983;SDS011;4037;47.980;10.172;2022-12-13T05:02:17;18.17;;;9.03;;
7983;SDS011;4037;47.980;10.172;2022-12-13T05:04:44;11.67;;;7.53;;
7983;SDS011;4037;47.980;10.172;2022-12-13T05:07:10;13.73;;;8.53;;
7983;SDS011;4037;47.980;10.172;2022-12-13T05:09:36;12.33;;;8.67;;
7983;SDS011;4037;47.980;10.172;2022-12-13T05:12:02;11.73;;;8.03;;
7983;SDS011;4037;47.980;10.172;2022-12-13T05:14:29;10.13;;;7.13;;
7983;SDS011;4037;47.980;10.172;2022-12-13T05:16:56;11.40;;;8.07;;
7983;SDS011;4037;47.980;10.172;2022-12-13T05:19:22;9.00;;;7.60;;
7983;SDS011;4037;47.980;10.172;2022-12-13T05:21:48;12.40;;;8.47;;
7983;SDS011;4037;47.980;10.172;2022-12-13T05:24:14;10.13;;;8.07;;
7983;SDS011;4037;47.980;10.172;2022-12-13T05:26:40;11.53;;;9.30;;
7983;SDS011;4037;47.980;10.172;2022-12-13T05:29:06;11.77;;;7.97;;
7983;SDS011;4037;47.980;10.172;2022-12-13T05:31:32;13.37;;;9.50;;
7983;SDS011;4037;47.980;10.172;2022-12-13T05:33:58;12.20;;;8.37;;
7983;SDS011;4037;47.980;10.172;2022-12-13T05:36:24;14.53;;;9.27;;
7983;SDS011;4037;47.980;10.172;2022-12-13T05:38:50;14.23;;;8.27;;
7983;SDS011;4037;47.980;10.172;2022-12-13T05:41:17;12.17;;;8.50;;
7983;SDS011;4037;47.980;10.172;2022-12-13T05:43:44;14.30;;;8.87;;
7983;SDS011;4037;47.980;10.172;2022-12-13T05:46:13;12.77;;;8.47;;
7983;SDS011;4037;47.980;10.172;2022-12-13T05:48:39;15.80;;;9.77;;
7983;SDS011;4037;47.980;10.172;2022-12-13T05:51:06;14.60;;;10.10;;
7983;SDS011;4037;47.980;10.172;2022-12-13T05:53:32;16.07;;;9.37;;
7983;SDS011;4037;47.980;10.172;2022-12-13T05:55:58;15.00;;;8.97;;
7983;SDS011;4037;47.980;10.172;2022-12-13T05:58:24;15.10;;;9.20;;
7983;SDS011;4037;47.980;10.172;2022-12-13T06:00:50;15.50;;;9.13;;
7983;SDS011;4037;47.980;10.172;2022-12-13T06:03:16;15.90;;;10.73;;
7983;SDS011;4037;47.980;10.172;2022-12-13T06:05:42;12.60;;;8.70;;
7983;SDS011;4037;47.980;10.172;2022-12-13T06:08:09;15.07;;;9.53;;
7983;SDS011;4037;47.980;10.172;2022-12-13T06:10:35;15.03;;;9.77;;
7983;SDS011;4037;47.980;10.172;2022-12-13T06:13:02;12.67;;;9.03;;
7983;SDS011;4037;47.980;10.172;2022-12-13T06:15:28;17.27;;;9.37;;
7983;SDS011;4037;47.980;10.172;2022-12-13T06:17:54;15.07;;;9.60;;
7983;SDS011;4037;47.980;10.172;2022-12-13T06:20:20;14.63;;;9.50;;
7983;SDS011;4037;47.980;10.172;2022-12-13T06:22:47;17.23;;;10.13;;
7983;SDS011;4037;47.980;10.172;2022-12-13T06:25:13;15.37;;;9.73;;
7983;SDS011;4037;47.980;10.172;2022-12-13T06:27:39;13.63;;;9.30;;
7983;SDS011;4037;47.980;10.172;2022-12-13T06:30:05;14.50;;;10.20;;
7983;SDS011;4037;47.980;10.172;2022-12-13T06:32:31;16.93;;;11.43;;
7983;SDS011;4037;47.980;10.172;2022-12-13T06:34:57;31.67;;;15.13;;
7983;SDS011;4037;47.980;10.172;2022-12-13T06:37:23;29.23;;;16.00;;
7983;SDS011;4037;47.980;10.172;2022-12-13T06:39:49;23.90;;;12.80;;
7983;SDS011;4037;47.980;10.172;2022-12-13T06:42:16;20.37;;;11.40;;
7983;SDS011;4037;47.980;10.172;2022-12-13T06:44:42;25.47;;;14.10;;
7983;SDS011;4037;47.980;10.172;2022-12-13T06:47:08;29.67;;;16.27;;
7983;SDS011;4037;47.980;10.172;2022-12-13T06:49:34;31.43;;;16.87;;
7983;SDS011;4037;47.980;10.172;2022-12-13T06:52:01;18.90;;;11.20;;
7983;SDS011;4037;47.980;10.172;2022-12-13T06:54:27;20.30;;;12.53;;
7983;SDS011;4037;47.980;10.172;2022-12-13T06:56:54;15.20;;;10.47;;
7983;SDS011;4037;47.980;10.172;2022-12-13T06:59:20;13.47;;;9.80;;
7983;SDS011;4037;47.980;10.172;2022-12-13T07:01:46;17.37;;;10.83;;
7983;SDS011;4037;47.980;10.172;2022-12-13T07:04:12;24.50;;;14.27;;
7983;SDS011;4037;47.980;10.172;2022-12-13T07:06:38;19.27;;;12.83;;
7983;SDS011;4037;47.980;10.172;2022-12-13T07:09:04;22.43;;;13.87;;
7983;SDS011;4037;47.980;10.172;2022-12-13T07:11:30;15.53;;;12.03;;
7983;SDS011;4037;47.980;10.172;2022-12-13T07:13:58;15.57;;;11.27;;
7983;SDS011;4037;47.980;10.172;2022-12-13T07:16:24;27.03;;;16.60;;
7983;SDS011;4037;47.980;10.172;2022-12-13T07:18:54;34.60;;;20.00;;
7983;SDS011;4037;47.980;10.172;2022-12-13T07:21:20;19.40;;;11.30;;
7983;SDS011;4037;47.980;10.172;2022-12-13T07:23:46;18.27;;;10.53;;
7983;SDS011;4037;47.980;10.172;2022-12-13T07:26:12;14.33;;;10.10;;
7983;SDS011;4037;47.980;10.172;2022-12-13T07:28:38;13.40;;;9.80;;
7983;SDS011;4037;47.980;10.172;2022-12-13T07:31:05;13.83;;;9.43;;
7983;SDS011;4037;47.980;10.172;2022-12-13T07:33:31;15.93;;;10.20;;
7983;SDS011;4037;47.980;10.172;2022-12-13T07:36:06;12.03;;;9.57;;
7983;SDS011;4037;47.980;10.172;2022-12-13T07:38:33;18.30;;;10.47;;
7983;SDS011;4037;47.980;10.172;2022-12-13T07:40:59;15.23;;;11.03;;
7983;SDS011;4037;47.980;10.172;2022-12-13T07:43:25;19.00;;;11.43;;
7983;SDS011;4037;47.980;10.172;2022-12-13T07:45:51;14.17;;;10.73;;
7983;SDS011;4037;47.980;10.172;2022-12-13T07:48:17;17.50;;;10.10;;
7983;SDS011;4037;47.980;10.172;2022-12-13T07:50:44;17.47;;;10.73;;
7983;SDS011;4037;47.980;10.172;2022-12-13T07:53:10;13.77;;;10.30;;
7983;SDS011;4037;47.980;10.172;2022-12-13T07:55:36;16.17;;;9.73;;
7983;SDS011;4037;47.980;10.172;2022-12-13T07:58:06;18.20;;;11.00;;
7983;SDS011;4037;47.980;10.172;2022-12-13T08:00:32;14.07;;;10.13;;
7983;SDS011;4037;47.980;10.172;2022-12-13T08:02:59;17.93;;;11.07;;
7983;SDS011;4037;47.980;10.172;2022-12-13T08:05:25;13.97;;;9.73;;
7983;SDS011;4037;47.980;10.172;2022-12-13T08:07:52;17.23;;;10.33;;
7983;SDS011;4037;47.980;10.172;2022-12-13T08:10:18;16.93;;;11.17;;
7983;SDS011;4037;47.980;10.172;2022-12-13T08:12:44;16.17;;;10.40;;
7983;SDS011;4037;47.980;10.172;2022-12-13T08:15:10;15.23;;;10.07;;
7983;SDS011;4037;47.980;10.172;2022-12-13T08:17:36;19.57;;;12.33;;
7983;SDS011;4037;47.980;10.172;2022-12-13T08:20:03;20.17;;;11.63;;
7983;SDS011;4037;47.980;10.172;2022-12-13T08:22:29;17.73;;;11.67;;
7983;SDS011;4037;47.980;10.172;2022-12-13T08:24:55;15.27;;;10.33;;
7983;SDS011;4037;47.980;10.172;2022-12-13T08:27:21;15.90;;;10.70;;
7983;SDS011;4037;47.980;10.172;2022-12-13T08:29:47;24.17;;;13.17;;
7983;SDS011;4037;47.980;10.172;2022-12-13T08:32:13;26.10;;;15.87;;
7983;SDS011;4037;47.980;10.172;2022-12-13T08:34:39;19.50;;;12.17;;
7983;SDS011;4037;47.980;10.172;2022-12-13T08:37:06;12.70;;;9.13;;
7983;SDS011;4037;47.980;10.172;2022-12-13T08:39:32;17.80;;;11.77;;
7983;SDS011;4037;47.980;10.172;2022-12-13T08:41:59;17.17;;;10.57;;
7983;SDS011;4037;47.980;10.172;2022-12-13T08:44:25;17.97;;;11.33;;
7983;SDS011;4037;47.980;10.172;2022-12-13T08:46:51;13.33;;;9.13;;
7983;SDS011;4037;47.980;10.172;2022-12-13T08:49:17;16.33;;;9.87;;
7983;SDS011;4037;47.980;10.172;2022-12-13T08:51:43;17.97;;;9.33;;
7983;SDS011;4037;47.980;10.172;2022-12-13T08:54:09;15.17;;;10.23;;
7983;SDS011;4037;47.980;10.172;2022-12-13T08:56:35;16.73;;;10.47;;
7983;SDS011;4037;47.980;10.172;2022-12-13T08:59:01;15.13;;;10.23;;
7983;SDS011;4037;47.980;10.172;2022-12-13T09:01:27;13.37;;;9.10;;
7983;SDS011;4037;47.980;10.172;2022-12-13T09:03:54;17.23;;;9.97;;
7983;SDS011;4037;47.980;10.172;2022-12-13T09:06:20;15.03;;;10.10;;
7983;SDS011;4037;47.980;10.172;2022-12-13T09:08:46;10.93;;;9.13;;
7983;SDS011;4037;47.980;10.172;2022-12-13T09:11:12;14.23;;;9.60;;
7983;SDS011;4037;47.980;10.172;2022-12-13T09:13:39;17.17;;;10.10;;
7983;SDS011;4037;47.980;10.172;2022-12-13T09:16:06;12.93;;;9.77;;
7983;SDS011;4037;47.980;10.172;2022-12-13T09:18:33;13.03;;;9.40;;
7983;SDS011;4037;47.980;10.172;2022-12-13T09:20:59;14.03;;;9.90;;
7983;SDS011;4037;47.980;10.172;2022-12-13T09:23:25;15.93;;;10.50;;
7983;SDS011;4037;47.980;10.172;2022-12-13T09:25:52;13.50;;;9.30;;
7983;SDS011;4037;47.980;10.172;2022-12-13T09:28:19;15.57;;;10.27;;
7983;SDS011;4037;47.980;10.172;2022-12-13T09:30:45;15.07;;;9.50;;
7983;SDS011;4037;47.980;10.172;2022-12-13T09:33:11;15.30;;;9.53;;
7983;SDS011;4037;47.980;10.172;2022-12-13T09:35:37;13.77;;;9.03;;
7983;SDS011;4037;47.980;10.172;2022-12-13T09:38:03;15.57;;;9.87;;
7983;SDS011;4037;47.980;10.172;2022-12-13T09:40:29;13.17;;;9.27;;
7983;SDS011;4037;47.980;10.172;2022-12-13T09:42:56;12.97;;;9.20;;
7983;SDS011;4037;47.980;10.172;2022-12-13T09:45:22;17.53;;;10.03;;
7983;SDS011;4037;47.980;10.172;2022-12-13T09:47:49;13.90;;;9.53;;
7983;SDS011;4037;47.980;10.172;2022-12-13T09:50:21;15.87;;;9.33;;
7983;SDS011;4037;47.980;10.172;2022-12-13T09:52:48;14.63;;;10.03;;
7983;SDS011;4037;47.980;10.172;2022-12-13T09:55:19;11.40;;;9.60;;
7983;SDS011;4037;47.980;10.172;2022-12-13T09:57:46;13.37;;;9.90;;
7983;SDS011;4037;47.980;10.172;2022-12-13T10:00:13;11.90;;;9.00;;
7983;SDS011;4037;47.980;10.172;2022-12-13T10:02:50;16.57;;;10.37;;
7983;SDS011;4037;47.980;10.172;2022-12-13T10:05:21;15.10;;;10.10;;
7983;SDS011;4037;47.980;10.172;2022-12-13T10:07:51;17.00;;;10.03;;
7983;SDS011;4037;47.980;10.172;2022-12-13T10:10:19;13.07;;;9.73;;
7983;SDS011;4037;47.980;10.172;2022-12-13T10:12:47;14.23;;;9.73;;
7983;SDS011;4037;47.980;10.172;2022-12-13T10:15:16;12.70;;;9.53;;
7983;SDS011;4037;47.980;10.172;2022-12-13T10:17:44;17.47;;;10.60;;
7983;SDS011;4037;47.980;10.172;2022-12-13T10:20:16;13.67;;;9.67;;
7983;SDS011;4037;47.980;10.172;2022-12-13T10:22:42;12.63;;;8.87;;
7983;SDS011;4037;47.980;10.172;2022-12-13T10:25:08;14.47;;;10.93;;
7983;SDS011;4037;47.980;10.172;2022-12-13T10:27:42;17.37;;;10.97;;
7983;SDS011;4037;47.980;10.172;2022-12-13T10:33:09;12.47;;;10.20;;
7983;SDS011;4037;47.980;10.172;2022-12-13T10:35:31;16.77;;;10.70;;
7983;SDS011;4037;47.980;10.172;2022-12-13T10:38:02;16.03;;;12.00;;
7983;SDS011;4037;47.980;10.172;2022-12-13T10:40:45;14.77;;;9.90;;
7983;SDS011;4037;47.980;10.172;2022-12-13T10:45:42;15.33;;;11.10;;
7983;SDS011;4037;47.980;10.172;2022-12-13T10:48:18;14.67;;;10.43;;
7983;SDS011;4037;47.980;10.172;2022-12-13T10:50:54;15.13;;;9.70;;
7983;SDS011;4037;47.980;10.172;2022-12-13T10:53:21;21.60;;;10.03;;
7983;SDS011;4037;47.980;10.172;2022-12-13T10:55:48;20.73;;;10.40;;
7983;SDS011;4037;47.980;10.172;2022-12-13T10:58:18;14.33;;;10.20;;
7983;SDS011;4037;47.980;10.172;2022-12-13T11:00:45;14.23;;;9.50;;
7983;SDS011;4037;47.980;10.172;2022-12-13T11:06:12;16.27;;;10.07;;
7983;SDS011;4037;47.980;10.172;2022-12-13T11:08:38;14.27;;;9.57;;
7983;SDS011;4037;47.980;10.172;2022-12-13T11:11:07;13.73;;;9.73;;
7983;SDS011;4037;47.980;10.172;2022-12-13T11:13:35;18.33;;;11.03;;
7983;SDS011;4037;47.980;10.172;2022-12-13T11:16:03;34.80;;;18.37;;
7983;SDS011;4037;47.980;10.172;2022-12-13T11:18:33;24.30;;;12.97;;
7983;SDS011;4037;47.980;10.172;2022-12-13T11:21:00;18.43;;;12.77;;
7983;SDS011;4037;47.980;10.172;2022-12-13T11:23:28;16.07;;;9.90;;
7983;SDS011;4037;47.980;10.172;2022-12-13T11:25:57;18.20;;;10.67;;
7983;SDS011;4037;47.980;10.172;2022-12-13T11:38:50;17.40;;;10.63;;
7983;SDS011;4037;47.980;10.172;2022-12-13T11:41:12;16.63;;;10.90;;
7983;SDS011;4037;47.980;10.172;2022-12-13T11:43:45;22.27;;;10.97;;
7983;SDS011;4037;47.980;10.172;2022-12-13T11:46:28;17.93;;;10.57;;
7983;SDS011;4037;47.980;10.172;2022-12-13T11:49:00;13.33;;;9.77;;
7983;SDS011;4037;47.980;10.172;2022-12-13T11:51:30;16.73;;;10.87;;
7983;SDS011;4037;47.980;10.172;2022-12-13T11:54:02;18.13;;;11.50;;
7983;SDS011;4037;47.980;10.172;2022-12-13T11:56:32;14.93;;;10.57;;
7983;SDS011;4037;47.980;10.172;2022-12-13T11:59:02;16.73;;;10.70;;
7983;SDS011;4037;47.980;10.172;2022-12-13T12:01:37;18.07;;;9.30;;
7983;SDS011;4037;47.980;10.172;2022-12-13T12:06:59;15.40;;;10.03;;
7983;SDS011;4037;47.980;10.172;2022-12-13T12:09:27;22.13;;;11.43;;
7983;SDS011;4037;47.980;10.172;2022-12-13T12:11:56;17.23;;;11.10;;
7983;SDS011;4037;47.980;10.172;2022-12-13T12:17:23;14.30;;;11.13;;
7983;SDS011;4037;47.980;10.172;2022-12-13T12:19:50;17.60;;;10.37;;
7983;SDS011;4037;47.980;10.172;2022-12-13T12:45:02;18.03;;;10.93;;
7983;SDS011;4037;47.980;10.172;2022-12-13T12:48:35;16.23;;;11.13;;
7983;SDS011;4037;47.980;10.172;2022-12-13T12:55:27;16.10;;;11.00;;
7983;SDS011;4037;47.980;10.172;2022-12-13T13:00:22;16.47;;;11.10;;
7983;SDS011;4037;47.980;10.172;2022-12-13T13:03:07;14.50;;;11.57;;
7983;SDS011;4037;47.980;10.172;2022-12-13T13:05:44;13.60;;;9.90;;
7983;SDS011;4037;47.980;10.172;2022-12-13T13:08:15;18.53;;;11.73;;
7983;SDS011;4037;47.980;10.172;2022-12-13T13:10:43;18.40;;;13.23;;
7983;SDS011;4037;47.980;10.172;2022-12-13T13:15:54;13.83;;;10.87;;
7983;SDS011;4037;47.980;10.172;2022-12-13T13:19:09;11.90;;;9.63;;
7983;SDS011;4037;47.980;10.172;2022-12-13T13:26:30;15.93;;;11.57;;
7983;SDS011;4037;47.980;10.172;2022-12-13T13:31:57;14.90;;;12.40;;
7983;SDS011;4037;47.980;10.172;2022-12-13T13:34:25;20.93;;;13.67;;
7983;SDS011;4037;47.980;10.172;2022-12-13T13:36:54;11.77;;;9.03;;
7983;SDS011;4037;47.980;10.172;2022-12-13T13:40:24;13.90;;;10.83;;
7983;SDS011;4037;47.980;10.172;2022-12-13T13:42:08;12.30;;;9.67;;
7983;SDS011;4037;47.980;10.172;2022-12-13T13:49:41;12.33;;;9.60;;
7983;SDS011;4037;47.980;10.172;2022-12-13T13:52:15;13.57;;;10.17;;
7983;SDS011;4037;47.980;10.172;2022-12-13T14:00:16;28.60;;;17.00;;
7983;SDS011;4037;47.980;10.172;2022-12-13T14:10:45;16.73;;;10.33;;
7983;SDS011;4037;47.980;10.172;2022-12-13T14:21:17;20.30;;;12.13;;
7983;SDS011;4037;47.980;10.172;2022-12-13T14:29:10;15.10;;;11.23;;
7983;SDS011;4037;47.980;10.172;2022-12-13T14:31:39;16.10;;;10.30;;
7983;SDS011;4037;47.980;10.172;2022-12-13T14:34:06;22.37;;;13.53;;
7983;SDS011;4037;47.980;10.172;2022-12-13T14:36:33;18.50;;;12.73;;
7983;SDS011;4037;47.980;10.172;2022-12-13T14:39:04;19.30;;;11.93;;
7983;SDS011;4037;47.980;10.172;2022-12-13T14:41:30;15.50;;;10.47;;
7983;SDS011;4037;47.980;10.172;2022-12-13T14:44:13;16.80;;;10.77;;
7983;SDS011;4037;47.980;10.172;2022-12-13T14:47:13;15.93;;;10.47;;
7983;SDS011;4037;47.980;10.172;2022-12-13T14:49:34;20.10;;;12.63;;
7983;SDS011;4037;47.980;10.172;2022-12-13T14:52:07;29.33;;;14.37;;
7983;SDS011;4037;47.980;10.172;2022-12-13T14:54:44;25.77;;;14.30;;
7983;SDS011;4037;47.980;10.172;2022-12-13T14:57:14;17.90;;;11.37;;
7983;SDS011;4037;47.980;10.172;2022-12-13T14:59:45;20.20;;;11.93;;
7983;SDS011;4037;47.980;10.172;2022-12-13T15:02:13;20.33;;;12.20;;
7983;SDS011;4037;47.980;10.172;2022-12-13T15:04:39;22.87;;;13.23;;
7983;SDS011;4037;47.980;10.172;2022-12-13T15:07:38;21.37;;;14.10;;
7983;SDS011;4037;47.980;10.172;2022-12-13T15:09:59;18.53;;;12.13;;
7983;SDS011;4037;47.980;10.172;2022-12-13T15:12:25;18.80;;;12.93;;
7983;SDS011;4037;47.980;10.172;2022-12-13T15:14:57;18.67;;;12.87;;
7983;SDS011;4037;47.980;10.172;2022-12-13T15:17:34;20.23;;;12.13;;
7983;SDS011;4037;47.980;10.172;2022-12-13T15:20:00;20.43;;;13.70;;
7983;SDS011;4037;47.980;10.172;2022-12-13T15:22:27;19.43;;;12.07;;
7983;SDS011;4037;47.980;10.172;2022-12-13T15:24:53;22.17;;;12.57;;
7983;SDS011;4037;47.980;10.172;2022-12-13T15:27:20;24.10;;;14.60;;
7983;SDS011;4037;47.980;10.172;2022-12-13T15:29:48;23.23;;;13.67;;
7983;SDS011;4037;47.980;10.172;2022-12-13T15:32:15;27.00;;;14.40;;
7983;SDS011;4037;47.980;10.172;2022-12-13T15:34:43;22.53;;;14.27;;
7983;SDS011;4037;47.980;10.172;2022-12-13T15:39:41;23.53;;;14.63;;
7983;SDS011;4037;47.980;10.172;2022-12-13T15:42:14;25.00;;;15.57;;
7983;SDS011;4037;47.980;10.172;2022-12-13T15:44:45;24.40;;;15.90;;
7983;SDS011;4037;47.980;10.172;2022-12-13T15:47:13;39.97;;;18.77;;
7983;SDS011;4037;47.980;10.172;2022-12-13T15:49:44;24.43;;;16.40;;
7983;SDS011;4037;47.980;10.172;2022-12-13T15:54:40;27.70;;;15.93;;
7983;SDS011;4037;47.980;10.172;2022-12-13T15:57:11;28.10;;;16.27;;
7983;SDS011;4037;47.980;10.172;2022-12-13T15:59:43;34.03;;;18.10;;
7983;SDS011;4037;47.980;10.172;2022-12-13T16:02:17;29.27;;;16.93;;
7983;SDS011;4037;47.980;10.172;2022-12-13T16:04:44;26.10;;;14.83;;
7983;SDS011;4037;47.980;10.172;2022-12-13T16:10:06;24.47;;;16.73;;
7983;SDS011;4037;47.980;10.172;2022-12-13T16:12:43;26.57;;;14.33;;
7983;SDS011;4037;47.980;10.172;2022-12-13T16:15:21;24.53;;;14.93;;
7983;SDS011;4037;47.980;10.172;2022-12-13T16:17:49;26.10;;;14.63;;
7983;SDS011;4037;47.980;10.172;2022-12-13T16:20:15;22.80;;;13.83;;
7983;SDS011;4037;47.980;10.172;2022-12-13T16:22:42;28.47;;;16.07;;
7983;SDS011;4037;47.980;10.172;2022-12-13T16:25:11;24.97;;;14.63;;
7983;SDS011;4037;47.980;10.172;2022-12-13T16:27:38;25.53;;;16.00;;
7983;SDS011;4037;47.980;10.172;2022-12-13T16:30:10;28.27;;;15.37;;
7983;SDS011;4037;47.980;10.172;2022-12-13T16:32:36;25.60;;;15.63;;
7983;SDS011;4037;47.980;10.172;2022-12-13T16:35:03;26.43;;;15.30;;
7983;SDS011;4037;47.980;10.172;2022-12-13T16:37:29;31.83;;;18.57;;
7983;SDS011;4037;47.980;10.172;2022-12-13T16:39:55;28.37;;;17.50;;
7983;SDS011;4037;47.980;10.172;2022-12-13T16:42:21;26.10;;;16.37;;
7983;SDS011;4037;47.980;10.172;2022-12-13T16:44:48;26.13;;;15.67;;
7983;SDS011;4037;47.980;10.172;2022-12-13T16:47:14;30.83;;;18.03;;
7983;SDS011;4037;47.980;10.172;2022-12-13T16:49:41;24.53;;;16.10;;
7983;SDS011;4037;47.980;10.172;2022-12-13T16:52:07;30.27;;;16.60;;
7983;SDS011;4037;47.980;10.172;2022-12-13T16:54:33;25.27;;;15.07;;
7983;SDS011;4037;47.980;10.172;2022-12-13T16:56:59;29.53;;;16.97;;
7983;SDS011;4037;47.980;10.172;2022-12-13T16:59:25;23.60;;;15.17;;
7983;SDS011;4037;47.980;10.172;2022-12-13T17:01:52;29.10;;;16.40;;